sensor_id;sensor_type;location;lat;lon;timestamp;temperature;humidity
1359;DHT22;673;48.098;14.422;2024-01-06T00:01:10;2.90;99.90
1359;DHT22;673;48.098;14.422;2024-01-06T00:03:40;2.70;99.90
1359;DHT22;673;48.098;14.422;2024-01-06T00:06:07;2.70;99.90
1359;DHT22;673;48.098;14.422;2024-01-06T00:08:34;2.70;99.90
1359;DHT22;673;48.098;14.422;2024-01-06T00:11:01;2.80;99.90
1359;DHT22;673;48.098;14.422;2024-01-06T00:13:29;2.80;99.90
1359;DHT22;673;48.098;14.422;2024-01-06T00:15:56;2.90;99.90
1359;DHT22;673;48.098;14.422;2024-01-06T00:18:23;3.00;99.90
1359;DHT22;673;48.098;14.422;2024-01-06T00:20:51;3.00;99.90
1359;DHT22;673;48.098;14.422;2024-01-06T00:23:18;2.90;99.90
1359;DHT22;673;48.098;14.422;2024-01-06T00:25:45;2.90;99.90
1359;DHT22;673;48.098;14.422;2024-01-06T00:28:12;2.80;99.90
1359;DHT22;673;48.098;14.422;2024-01-06T00:30:39;2.80;99.90
1359;DHT22;673;48.098;14.422;2024-01-06T00:33:06;2.80;99.90
1359;DHT22;673;48.098;14.422;2024-01-06T00:35:33;2.90;99.90
1359;DHT22;673;48.098;14.422;2024-01-06T00:38:01;2.80;99.90
1359;DHT22;673;48.098;14.422;2024-01-06T00:40:29;2.70;99.90
1359;DHT22;673;48.098;14.422;2024-01-06T00:42:58;2.70;99.90
1359;DHT22;673;48.098;14.422;2024-01-06T00:45:25;2.80;99.90
1359;DHT22;673;48.098;14.422;2024-01-06T00:47:52;2.80;99.90
1359;DHT22;673;48.098;14.422;2024-01-06T00:50:19;2.90;99.90
1359;DHT22;673;48.098;14.422;2024-01-06T00:52:46;2.90;99.90
1359;DHT22;673;48.098;14.422;2024-01-06T00:55:14;3.00;99.90
1359;DHT22;673;48.098;14.422;2024-01-06T00:57:41;3.00;99.90
1359;DHT22;673;48.098;14.422;2024-01-06T01:00:09;3.00;99.90
1359;DHT22;673;48.098;14.422;2024-01-06T01:02:36;3.00;99.90
1359;DHT22;673;48.098;14.422;2024-01-06T01:05:03;3.20;99.90
1359;DHT22;673;48.098;14.422;2024-01-06T01:07:32;3.10;99.90
1359;DHT22;673;48.098;14.422;2024-01-06T01:10:00;3.10;99.90
1359;DHT22;673;48.098;14.422;2024-01-06T01:12:28;3.10;99.90
1359;DHT22;673;48.098;14.422;2024-01-06T01:14:55;3.10;99.90
1359;DHT22;673;48.098;14.422;2024-01-06T01:17:22;3.00;99.90
1359;DHT22;673;48.098;14.422;2024-01-06T01:19:49;3.00;99.90
1359;DHT22;673;48.098;14.422;2024-01-06T01:22:16;2.90;99.90
1359;DHT22;673;48.098;14.422;2024-01-06T01:24:43;2.80;99.90
1359;DHT22;673;48.098;14.422;2024-01-06T01:27:10;2.80;99.90
1359;DHT22;673;48.098;14.422;2024-01-06T01:29:38;2.70;99.90
1359;DHT22;673;48.098;14.422;2024-01-06T01:32:06;2.60;99.90
1359;DHT22;673;48.098;14.422;2024-01-06T01:34:32;2.60;99.90
1359;DHT22;673;48.098;14.422;2024-01-06T01:37:00;2.60;99.90
1359;DHT22;673;48.098;14.422;2024-01-06T01:39:27;2.70;99.90
1359;DHT22;673;48.098;14.422;2024-01-06T01:41:54;2.80;99.90
1359;DHT22;673;48.098;14.422;2024-01-06T01:44:21;2.80;99.90
1359;DHT22;673;48.098;14.422;2024-01-06T01:46:49;2.60;99.90
1359;DHT22;673;48.098;14.422;2024-01-06T01:49:16;2.60;99.90
1359;DHT22;673;48.098;14.422;2024-01-06T01:51:43;2.60;99.90
1359;DHT22;673;48.098;14.422;2024-01-06T01:54:10;2.60;99.90
1359;DHT22;673;48.098;14.422;2024-01-06T01:56:39;2.60;99.90
1359;DHT22;673;48.098;14.422;2024-01-06T01:59:10;2.60;99.90
1359;DHT22;673;48.098;14.422;2024-01-06T02:01:38;2.60;99.90
1359;DHT22;673;48.098;14.422;2024-01-06T02:04:08;2.60;99.90
1359;DHT22;673;48.098;14.422;2024-01-06T02:06:35;2.70;99.90
1359;DHT22;673;48.098;14.422;2024-01-06T02:09:02;2.70;99.90
1359;DHT22;673;48.098;14.422;2024-01-06T02:11:29;2.70;99.90
1359;DHT22;673;48.098;14.422;2024-01-06T02:13:56;2.80;99.90
1359;DHT22;673;48.098;14.422;2024-01-06T02:16:23;2.70;99.90
1359;DHT22;673;48.098;14.422;2024-01-06T02:18:50;2.80;99.90
1359;DHT22;673;48.098;14.422;2024-01-06T02:21:20;2.80;99.90
1359;DHT22;673;48.098;14.422;2024-01-06T02:23:48;2.90;99.90
1359;DHT22;673;48.098;14.422;2024-01-06T02:26:16;2.90;99.90
1359;DHT22;673;48.098;14.422;2024-01-06T02:28:43;2.80;99.90
1359;DHT22;673;48.098;14.422;2024-01-06T02:31:13;2.80;99.90
1359;DHT22;673;48.098;14.422;2024-01-06T02:33:40;2.90;99.90
1359;DHT22;673;48.098;14.422;2024-01-06T02:36:07;2.90;99.90
1359;DHT22;673;48.098;14.422;2024-01-06T02:38:34;2.90;99.90
1359;DHT22;673;48.098;14.422;2024-01-06T02:41:03;2.90;99.90
1359;DHT22;673;48.098;14.422;2024-01-06T02:43:30;2.90;99.90
1359;DHT22;673;48.098;14.422;2024-01-06T02:45:56;2.90;99.90
1359;DHT22;673;48.098;14.422;2024-01-06T02:48:23;3.00;99.90
1359;DHT22;673;48.098;14.422;2024-01-06T02:50:50;2.90;99.90
1359;DHT22;673;48.098;14.422;2024-01-06T02:53:17;3.00;99.90
1359;DHT22;673;48.098;14.422;2024-01-06T02:55:44;3.00;99.90
1359;DHT22;673;48.098;14.422;2024-01-06T02:58:12;2.90;99.90
1359;DHT22;673;48.098;14.422;2024-01-06T03:00:39;2.80;99.90
1359;DHT22;673;48.098;14.422;2024-01-06T03:03:06;2.80;99.90
1359;DHT22;673;48.098;14.422;2024-01-06T03:05:33;2.90;99.90
1359;DHT22;673;48.098;14.422;2024-01-06T03:08:03;2.90;99.90
1359;DHT22;673;48.098;14.422;2024-01-06T03:10:30;2.90;99.90
1359;DHT22;673;48.098;14.422;2024-01-06T03:12:57;2.80;99.90
1359;DHT22;673;48.098;14.422;2024-01-06T03:15:25;2.90;99.90
1359;DHT22;673;48.098;14.422;2024-01-06T03:17:52;2.90;99.90
1359;DHT22;673;48.098;14.422;2024-01-06T03:20:19;2.90;99.90
1359;DHT22;673;48.098;14.422;2024-01-06T03:22:46;2.80;99.90
1359;DHT22;673;48.098;14.422;2024-01-06T03:25:13;2.80;99.90
1359;DHT22;673;48.098;14.422;2024-01-06T03:27:40;2.70;99.90
1359;DHT22;673;48.098;14.422;2024-01-06T03:30:08;2.70;99.90
1359;DHT22;673;48.098;14.422;2024-01-06T03:32:36;2.70;99.90
1359;DHT22;673;48.098;14.422;2024-01-06T03:35:04;2.70;99.90
1359;DHT22;673;48.098;14.422;2024-01-06T03:37:32;2.70;99.90
1359;DHT22;673;48.098;14.422;2024-01-06T03:39:59;2.60;99.90
1359;DHT22;673;48.098;14.422;2024-01-06T03:42:26;2.60;99.90
1359;DHT22;673;48.098;14.422;2024-01-06T03:44:53;2.60;99.90
1359;DHT22;673;48.098;14.422;2024-01-06T03:47:20;2.60;99.90
1359;DHT22;673;48.098;14.422;2024-01-06T03:49:48;2.60;99.90
1359;DHT22;673;48.098;14.422;2024-01-06T03:52:15;2.60;99.90
1359;DHT22;673;48.098;14.422;2024-01-06T03:54:42;2.70;99.90
1359;DHT22;673;48.098;14.422;2024-01-06T03:57:09;2.70;99.90
1359;DHT22;673;48.098;14.422;2024-01-06T03:59:36;2.70;99.90
1359;DHT22;673;48.098;14.422;2024-01-06T04:02:03;2.70;99.90
1359;DHT22;673;48.098;14.422;2024-01-06T04:04:30;2.80;99.90
1359;DHT22;673;48.098;14.422;2024-01-06T04:06:58;2.80;99.90
1359;DHT22;673;48.098;14.422;2024-01-06T04:09:27;2.80;99.90
1359;DHT22;673;48.098;14.422;2024-01-06T04:11:53;2.80;99.90
1359;DHT22;673;48.098;14.422;2024-01-06T04:14:21;2.90;99.90
1359;DHT22;673;48.098;14.422;2024-01-06T04:16:48;2.90;99.90
1359;DHT22;673;48.098;14.422;2024-01-06T04:19:15;3.10;99.90
1359;DHT22;673;48.098;14.422;2024-01-06T04:21:42;3.10;99.90
1359;DHT22;673;48.098;14.422;2024-01-06T04:24:10;3.10;99.90
1359;DHT22;673;48.098;14.422;2024-01-06T04:26:38;3.10;99.90
1359;DHT22;673;48.098;14.422;2024-01-06T04:29:05;3.10;99.90
1359;DHT22;673;48.098;14.422;2024-01-06T04:31:32;3.00;99.90
1359;DHT22;673;48.098;14.422;2024-01-06T04:33:58;3.00;99.90
1359;DHT22;673;48.098;14.422;2024-01-06T04:36:25;3.00;99.90
1359;DHT22;673;48.098;14.422;2024-01-06T04:38:52;3.10;99.90
1359;DHT22;673;48.098;14.422;2024-01-06T04:41:21;3.10;99.90
1359;DHT22;673;48.098;14.422;2024-01-06T04:43:48;3.10;99.90
1359;DHT22;673;48.098;14.422;2024-01-06T04:46:14;3.10;99.90
1359;DHT22;673;48.098;14.422;2024-01-06T04:48:41;3.00;99.90
1359;DHT22;673;48.098;14.422;2024-01-06T04:51:09;2.90;99.90
1359;DHT22;673;48.098;14.422;2024-01-06T04:53:36;2.90;99.90
1359;DHT22;673;48.098;14.422;2024-01-06T04:56:04;3.00;99.90
1359;DHT22;673;48.098;14.422;2024-01-06T04:58:32;3.00;99.90
1359;DHT22;673;48.098;14.422;2024-01-06T05:01:00;2.90;99.90
1359;DHT22;673;48.098;14.422;2024-01-06T05:03:27;3.00;99.90
1359;DHT22;673;48.098;14.422;2024-01-06T05:05:55;3.00;99.90
1359;DHT22;673;48.098;14.422;2024-01-06T05:08:21;3.10;99.90
1359;DHT22;673;48.098;14.422;2024-01-06T05:10:51;3.10;99.90
1359;DHT22;673;48.098;14.422;2024-01-06T05:13:19;3.20;99.90
1359;DHT22;673;48.098;14.422;2024-01-06T05:15:47;3.20;99.90
1359;DHT22;673;48.098;14.422;2024-01-06T05:18:14;3.10;99.90
1359;DHT22;673;48.098;14.422;2024-01-06T05:20:41;3.10;99.90
1359;DHT22;673;48.098;14.422;2024-01-06T05:23:08;3.10;99.90
1359;DHT22;673;48.098;14.422;2024-01-06T05:25:35;3.20;99.90
1359;DHT22;673;48.098;14.422;2024-01-06T05:28:02;3.20;99.90
1359;DHT22;673;48.098;14.422;2024-01-06T05:30:29;3.20;99.90
1359;DHT22;673;48.098;14.422;2024-01-06T05:32:57;3.20;99.90
1359;DHT22;673;48.098;14.422;2024-01-06T05:35:24;3.20;99.90
1359;DHT22;673;48.098;14.422;2024-01-06T05:37:51;3.30;99.90
1359;DHT22;673;48.098;14.422;2024-01-06T05:40:18;3.20;99.90
1359;DHT22;673;48.098;14.422;2024-01-06T05:42:45;3.20;99.90
1359;DHT22;673;48.098;14.422;2024-01-06T05:45:12;3.10;99.90
1359;DHT22;673;48.098;14.422;2024-01-06T05:47:39;3.20;99.90
1359;DHT22;673;48.098;14.422;2024-01-06T05:50:09;3.20;99.90
1359;DHT22;673;48.098;14.422;2024-01-06T05:52:36;3.20;99.90
1359;DHT22;673;48.098;14.422;2024-01-06T05:55:04;3.20;99.90
1359;DHT22;673;48.098;14.422;2024-01-06T05:57:31;3.20;99.90
1359;DHT22;673;48.098;14.422;2024-01-06T05:59:59;3.10;99.90
1359;DHT22;673;48.098;14.422;2024-01-06T06:02:26;3.20;99.90
1359;DHT22;673;48.098;14.422;2024-01-06T06:04:53;3.10;99.90
1359;DHT22;673;48.098;14.422;2024-01-06T06:07:21;3.10;99.90
1359;DHT22;673;48.098;14.422;2024-01-06T06:09:48;3.10;99.90
1359;DHT22;673;48.098;14.422;2024-01-06T06:12:15;3.10;99.90
1359;DHT22;673;48.098;14.422;2024-01-06T06:14:42;3.10;99.90
1359;DHT22;673;48.098;14.422;2024-01-06T06:17:09;3.10;99.90
1359;DHT22;673;48.098;14.422;2024-01-06T06:19:36;3.10;99.90
1359;DHT22;673;48.098;14.422;2024-01-06T06:22:04;3.10;99.90
1359;DHT22;673;48.098;14.422;2024-01-06T06:24:32;3.10;99.90
1359;DHT22;673;48.098;14.422;2024-01-06T06:26:59;3.20;99.90
1359;DHT22;673;48.098;14.422;2024-01-06T06:29:26;3.10;99.90
1359;DHT22;673;48.098;14.422;2024-01-06T06:31:54;3.10;99.90
1359;DHT22;673;48.098;14.422;2024-01-06T06:34:22;3.10;99.90
1359;DHT22;673;48.098;14.422;2024-01-06T06:36:49;3.10;99.90
1359;DHT22;673;48.098;14.422;2024-01-06T06:39:16;3.10;99.90
1359;DHT22;673;48.098;14.422;2024-01-06T06:41:45;3.00;99.90
1359;DHT22;673;48.098;14.422;2024-01-06T06:44:12;3.00;99.90
1359;DHT22;673;48.098;14.422;2024-01-06T06:46:39;3.10;99.90
1359;DHT22;673;48.098;14.422;2024-01-06T06:49:06;3.10;99.90
1359;DHT22;673;48.098;14.422;2024-01-06T06:51:33;3.10;99.90
1359;DHT22;673;48.098;14.422;2024-01-06T06:54:00;3.10;99.90
1359;DHT22;673;48.098;14.422;2024-01-06T06:56:27;3.20;99.90
1359;DHT22;673;48.098;14.422;2024-01-06T06:58:56;3.20;99.90
1359;DHT22;673;48.098;14.422;2024-01-06T07:01:23;3.10;99.90
1359;DHT22;673;48.098;14.422;2024-01-06T07:03:49;3.10;99.90
1359;DHT22;673;48.098;14.422;2024-01-06T07:06:16;3.00;99.90
1359;DHT22;673;48.098;14.422;2024-01-06T07:08:43;3.00;99.90
1359;DHT22;673;48.098;14.422;2024-01-06T07:11:10;3.00;99.90
1359;DHT22;673;48.098;14.422;2024-01-06T07:13:40;3.00;99.90
1359;DHT22;673;48.098;14.422;2024-01-06T07:16:08;3.00;99.90
1359;DHT22;673;48.098;14.422;2024-01-06T07:18:37;3.00;99.90
1359;DHT22;673;48.098;14.422;2024-01-06T07:21:05;3.10;99.90
1359;DHT22;673;48.098;14.422;2024-01-06T07:23:33;3.10;99.90
1359;DHT22;673;48.098;14.422;2024-01-06T07:26:01;3.10;99.90
1359;DHT22;673;48.098;14.422;2024-01-06T07:28:28;3.10;99.90
1359;DHT22;673;48.098;14.422;2024-01-06T07:30:55;3.10;99.90
1359;DHT22;673;48.098;14.422;2024-01-06T07:33:24;3.20;99.90
1359;DHT22;673;48.098;14.422;2024-01-06T07:35:51;3.20;99.90
1359;DHT22;673;48.098;14.422;2024-01-06T07:38:18;3.20;99.90
1359;DHT22;673;48.098;14.422;2024-01-06T07:40:45;3.10;99.90
1359;DHT22;673;48.098;14.422;2024-01-06T07:43:12;3.20;99.90
1359;DHT22;673;48.098;14.422;2024-01-06T07:45:40;3.20;99.90
1359;DHT22;673;48.098;14.422;2024-01-06T07:48:07;3.20;99.90
1359;DHT22;673;48.098;14.422;2024-01-06T07:50:36;3.20;99.90
1359;DHT22;673;48.098;14.422;2024-01-06T07:53:03;3.30;99.90
1359;DHT22;673;48.098;14.422;2024-01-06T07:55:30;3.30;99.90
1359;DHT22;673;48.098;14.422;2024-01-06T07:57:57;3.30;99.90
1359;DHT22;673;48.098;14.422;2024-01-06T08:00:24;3.30;99.90
1359;DHT22;673;48.098;14.422;2024-01-06T08:02:51;3.30;99.90
1359;DHT22;673;48.098;14.422;2024-01-06T08:05:18;3.40;99.90
1359;DHT22;673;48.098;14.422;2024-01-06T08:07:47;3.40;99.90
1359;DHT22;673;48.098;14.422;2024-01-06T08:10:13;3.40;99.90
1359;DHT22;673;48.098;14.422;2024-01-06T08:12:40;3.30;99.90
1359;DHT22;673;48.098;14.422;2024-01-06T08:15:08;3.30;99.90
1359;DHT22;673;48.098;14.422;2024-01-06T08:17:35;3.40;99.90
1359;DHT22;673;48.098;14.422;2024-01-06T08:20:03;3.40;99.90
1359;DHT22;673;48.098;14.422;2024-01-06T08:22:30;3.40;99.90
1359;DHT22;673;48.098;14.422;2024-01-06T08:24:58;3.40;99.90
1359;DHT22;673;48.098;14.422;2024-01-06T08:27:25;3.50;99.90
1359;DHT22;673;48.098;14.422;2024-01-06T08:29:53;3.50;99.90
1359;DHT22;673;48.098;14.422;2024-01-06T08:32:19;3.60;99.90
1359;DHT22;673;48.098;14.422;2024-01-06T08:34:46;3.70;99.90
1359;DHT22;673;48.098;14.422;2024-01-06T08:37:13;3.70;99.90
1359;DHT22;673;48.098;14.422;2024-01-06T08:39:40;3.80;99.90
1359;DHT22;673;48.098;14.422;2024-01-06T08:42:09;3.80;99.90
1359;DHT22;673;48.098;14.422;2024-01-06T08:44:36;3.80;99.90
1359;DHT22;673;48.098;14.422;2024-01-06T08:47:03;3.90;99.90
1359;DHT22;673;48.098;14.422;2024-01-06T08:49:30;4.00;99.90
1359;DHT22;673;48.098;14.422;2024-01-06T08:51:57;4.00;99.90
1359;DHT22;673;48.098;14.422;2024-01-06T08:54:24;4.10;99.90
1359;DHT22;673;48.098;14.422;2024-01-06T08:56:51;4.20;99.90
1359;DHT22;673;48.098;14.422;2024-01-06T08:59:20;4.10;99.90
1359;DHT22;673;48.098;14.422;2024-01-06T09:01:47;4.10;99.90
1359;DHT22;673;48.098;14.422;2024-01-06T09:04:14;4.10;99.90
1359;DHT22;673;48.098;14.422;2024-01-06T09:06:41;4.10;99.90
1359;DHT22;673;48.098;14.422;2024-01-06T09:09:08;4.10;99.90
1359;DHT22;673;48.098;14.422;2024-01-06T09:11:35;4.10;99.90
1359;DHT22;673;48.098;14.422;2024-01-06T09:14:02;4.10;99.90
1359;DHT22;673;48.098;14.422;2024-01-06T09:16:30;4.10;99.90
1359;DHT22;673;48.098;14.422;2024-01-06T09:18:57;4.10;99.90
1359;DHT22;673;48.098;14.422;2024-01-06T09:21:24;4.10;99.90
1359;DHT22;673;48.098;14.422;2024-01-06T09:23:51;4.10;99.90
1359;DHT22;673;48.098;14.422;2024-01-06T09:26:18;4.10;99.90
1359;DHT22;673;48.098;14.422;2024-01-06T09:28:45;4.20;99.90
1359;DHT22;673;48.098;14.422;2024-01-06T09:31:13;4.20;99.90
1359;DHT22;673;48.098;14.422;2024-01-06T09:33:41;4.20;99.90
1359;DHT22;673;48.098;14.422;2024-01-06T09:36:09;4.20;99.90
1359;DHT22;673;48.098;14.422;2024-01-06T09:38:37;4.10;99.90
1359;DHT22;673;48.098;14.422;2024-01-06T09:41:05;4.20;99.90
1359;DHT22;673;48.098;14.422;2024-01-06T09:43:31;4.20;99.90
1359;DHT22;673;48.098;14.422;2024-01-06T09:46:05;4.20;99.90
1359;DHT22;673;48.098;14.422;2024-01-06T09:48:38;4.30;99.90
1359;DHT22;673;48.098;14.422;2024-01-06T09:51:10;4.30;99.90
1359;DHT22;673;48.098;14.422;2024-01-06T09:53:43;4.30;99.90
1359;DHT22;673;48.098;14.422;2024-01-06T09:56:14;4.30;99.90
1359;DHT22;673;48.098;14.422;2024-01-06T09:58:42;4.30;99.90
1359;DHT22;673;48.098;14.422;2024-01-06T10:01:10;4.30;99.90
1359;DHT22;673;48.098;14.422;2024-01-06T10:03:38;4.30;99.90
1359;DHT22;673;48.098;14.422;2024-01-06T10:06:06;4.20;99.90
1359;DHT22;673;48.098;14.422;2024-01-06T10:08:35;4.30;99.90
1359;DHT22;673;48.098;14.422;2024-01-06T10:11:02;4.40;99.90
1359;DHT22;673;48.098;14.422;2024-01-06T10:13:29;4.50;99.90
1359;DHT22;673;48.098;14.422;2024-01-06T10:15:56;4.40;99.90
1359;DHT22;673;48.098;14.422;2024-01-06T10:18:25;4.40;99.90
1359;DHT22;673;48.098;14.422;2024-01-06T10:20:55;4.50;99.90
1359;DHT22;673;48.098;14.422;2024-01-06T10:23:24;4.40;99.90
1359;DHT22;673;48.098;14.422;2024-01-06T10:25:53;4.30;99.90
1359;DHT22;673;48.098;14.422;2024-01-06T10:28:20;4.30;99.90
1359;DHT22;673;48.098;14.422;2024-01-06T10:30:48;4.30;99.90
1359;DHT22;673;48.098;14.422;2024-01-06T10:33:16;4.40;99.90
1359;DHT22;673;48.098;14.422;2024-01-06T10:35:43;4.30;99.90
1359;DHT22;673;48.098;14.422;2024-01-06T10:38:11;4.30;99.90
1359;DHT22;673;48.098;14.422;2024-01-06T10:40:39;4.30;99.90
1359;DHT22;673;48.098;14.422;2024-01-06T10:43:07;4.20;99.90
1359;DHT22;673;48.098;14.422;2024-01-06T10:45:35;4.30;99.90
1359;DHT22;673;48.098;14.422;2024-01-06T10:48:05;4.50;99.90
1359;DHT22;673;48.098;14.422;2024-01-06T10:50:32;4.40;99.90
1359;DHT22;673;48.098;14.422;2024-01-06T10:53:00;4.40;99.90
1359;DHT22;673;48.098;14.422;2024-01-06T10:55:29;4.40;99.90
1359;DHT22;673;48.098;14.422;2024-01-06T10:57:59;4.40;99.90
1359;DHT22;673;48.098;14.422;2024-01-06T11:00:27;4.40;99.90
1359;DHT22;673;48.098;14.422;2024-01-06T11:02:55;4.40;99.90
1359;DHT22;673;48.098;14.422;2024-01-06T11:05:23;4.40;99.90
1359;DHT22;673;48.098;14.422;2024-01-06T11:07:51;4.40;99.90
1359;DHT22;673;48.098;14.422;2024-01-06T11:10:25;4.40;99.90
1359;DHT22;673;48.098;14.422;2024-01-06T11:13:13;4.50;99.90
1359;DHT22;673;48.098;14.422;2024-01-06T11:15:43;4.50;99.90
1359;DHT22;673;48.098;14.422;2024-01-06T11:18:30;4.40;99.90
1359;DHT22;673;48.098;14.422;2024-01-06T11:21:17;4.50;99.90
1359;DHT22;673;48.098;14.422;2024-01-06T11:24:08;4.50;99.90
1359;DHT22;673;48.098;14.422;2024-01-06T11:26:38;4.50;99.90
1359;DHT22;673;48.098;14.422;2024-01-06T11:29:07;4.50;99.90
1359;DHT22;673;48.098;14.422;2024-01-06T11:31:36;4.40;99.90
1359;DHT22;673;48.098;14.422;2024-01-06T11:34:14;4.40;99.90
1359;DHT22;673;48.098;14.422;2024-01-06T11:36:43;4.50;99.90
1359;DHT22;673;48.098;14.422;2024-01-06T11:42:11;4.40;99.90
1359;DHT22;673;48.098;14.422;2024-01-06T11:44:43;4.40;99.90
1359;DHT22;673;48.098;14.422;2024-01-06T11:47:11;4.40;99.90
1359;DHT22;673;48.098;14.422;2024-01-06T11:49:38;4.50;99.90
1359;DHT22;673;48.098;14.422;2024-01-06T11:52:05;4.50;99.90
1359;DHT22;673;48.098;14.422;2024-01-06T11:54:33;4.40;99.90
1359;DHT22;673;48.098;14.422;2024-01-06T11:57:01;4.40;99.90
1359;DHT22;673;48.098;14.422;2024-01-06T11:59:28;4.50;99.90
1359;DHT22;673;48.098;14.422;2024-01-06T12:01:57;4.50;99.90
1359;DHT22;673;48.098;14.422;2024-01-06T12:04:24;4.50;99.90
1359;DHT22;673;48.098;14.422;2024-01-06T12:06:52;4.40;99.90
1359;DHT22;673;48.098;14.422;2024-01-06T12:09:20;4.40;99.90
1359;DHT22;673;48.098;14.422;2024-01-06T12:12:01;4.40;99.90
1359;DHT22;673;48.098;14.422;2024-01-06T12:14:27;4.40;99.90
1359;DHT22;673;48.098;14.422;2024-01-06T12:16:55;4.20;99.90
1359;DHT22;673;48.098;14.422;2024-01-06T12:19:27;4.30;99.90
1359;DHT22;673;48.098;14.422;2024-01-06T12:21:55;4.40;99.90
1359;DHT22;673;48.098;14.422;2024-01-06T12:24:22;4.30;99.90
1359;DHT22;673;48.098;14.422;2024-01-06T12:26:49;4.30;99.90
1359;DHT22;673;48.098;14.422;2024-01-06T12:29:17;4.20;99.90
1359;DHT22;673;48.098;14.422;2024-01-06T12:31:44;4.20;99.90
1359;DHT22;673;48.098;14.422;2024-01-06T12:34:11;4.20;99.90
1359;DHT22;673;48.098;14.422;2024-01-06T12:36:41;4.20;99.90
1359;DHT22;673;48.098;14.422;2024-01-06T12:39:11;4.30;99.90
1359;DHT22;673;48.098;14.422;2024-01-06T12:41:40;4.20;99.90
1359;DHT22;673;48.098;14.422;2024-01-06T12:44:07;4.30;99.90
1359;DHT22;673;48.098;14.422;2024-01-06T12:46:35;4.30;99.90
1359;DHT22;673;48.098;14.422;2024-01-06T12:49:02;4.20;99.90
1359;DHT22;673;48.098;14.422;2024-01-06T12:51:29;4.20;99.90
1359;DHT22;673;48.098;14.422;2024-01-06T12:53:57;4.30;99.90
1359;DHT22;673;48.098;14.422;2024-01-06T12:56:24;4.30;99.90
1359;DHT22;673;48.098;14.422;2024-01-06T12:58:51;4.30;99.90
1359;DHT22;673;48.098;14.422;2024-01-06T13:01:18;4.20;99.90
1359;DHT22;673;48.098;14.422;2024-01-06T13:03:45;4.10;99.90
1359;DHT22;673;48.098;14.422;2024-01-06T13:06:12;4.10;99.90
1359;DHT22;673;48.098;14.422;2024-01-06T13:08:40;4.10;99.90
1359;DHT22;673;48.098;14.422;2024-01-06T13:11:09;4.10;99.90
1359;DHT22;673;48.098;14.422;2024-01-06T13:13:36;4.10;99.90
1359;DHT22;673;48.098;14.422;2024-01-06T13:16:03;4.10;99.90
1359;DHT22;673;48.098;14.422;2024-01-06T13:18:31;4.10;99.90
1359;DHT22;673;48.098;14.422;2024-01-06T13:20:58;4.00;99.90
1359;DHT22;673;48.098;14.422;2024-01-06T13:23:25;4.00;99.90
1359;DHT22;673;48.098;14.422;2024-01-06T13:25:52;4.00;99.90
1359;DHT22;673;48.098;14.422;2024-01-06T13:28:20;4.00;99.90
1359;DHT22;673;48.098;14.422;2024-01-06T13:30:49;4.00;99.90
1359;DHT22;673;48.098;14.422;2024-01-06T13:33:17;4.00;99.90
1359;DHT22;673;48.098;14.422;2024-01-06T13:35:44;4.00;99.90
1359;DHT22;673;48.098;14.422;2024-01-06T13:38:11;4.00;99.90
1359;DHT22;673;48.098;14.422;2024-01-06T13:40:38;4.00;99.90
1359;DHT22;673;48.098;14.422;2024-01-06T13:43:06;4.00;99.90
1359;DHT22;673;48.098;14.422;2024-01-06T13:45:36;3.90;99.90
1359;DHT22;673;48.098;14.422;2024-01-06T13:48:03;4.00;99.90
1359;DHT22;673;48.098;14.422;2024-01-06T13:50:30;3.90;99.90
1359;DHT22;673;48.098;14.422;2024-01-06T13:52:58;3.80;99.90
1359;DHT22;673;48.098;14.422;2024-01-06T13:55:25;3.80;99.90
1359;DHT22;673;48.098;14.422;2024-01-06T13:57:52;3.90;99.90
1359;DHT22;673;48.098;14.422;2024-01-06T14:00:20;3.80;99.90
1359;DHT22;673;48.098;14.422;2024-01-06T14:02:49;3.80;99.90
1359;DHT22;673;48.098;14.422;2024-01-06T14:05:16;3.80;99.90
1359;DHT22;673;48.098;14.422;2024-01-06T14:07:45;3.70;99.90
1359;DHT22;673;48.098;14.422;2024-01-06T14:10:14;3.70;99.90
1359;DHT22;673;48.098;14.422;2024-01-06T14:12:41;3.60;99.90
1359;DHT22;673;48.098;14.422;2024-01-06T14:15:09;3.60;99.90
1359;DHT22;673;48.098;14.422;2024-01-06T14:17:36;3.60;99.90
1359;DHT22;673;48.098;14.422;2024-01-06T14:20:05;3.50;99.90
1359;DHT22;673;48.098;14.422;2024-01-06T14:22:35;3.50;99.90
1359;DHT22;673;48.098;14.422;2024-01-06T14:25:03;3.50;99.90
1359;DHT22;673;48.098;14.422;2024-01-06T14:27:32;3.50;99.90
1359;DHT22;673;48.098;14.422;2024-01-06T14:29:59;3.50;99.90
1359;DHT22;673;48.098;14.422;2024-01-06T14:32:26;3.40;99.90
1359;DHT22;673;48.098;14.422;2024-01-06T14:34:54;3.40;99.90
1359;DHT22;673;48.098;14.422;2024-01-06T14:37:23;3.40;99.90
1359;DHT22;673;48.098;14.422;2024-01-06T14:39:50;3.40;99.90
1359;DHT22;673;48.098;14.422;2024-01-06T14:42:17;3.40;99.90
1359;DHT22;673;48.098;14.422;2024-01-06T14:44:44;3.40;99.90
1359;DHT22;673;48.098;14.422;2024-01-06T14:47:11;3.40;99.90
1359;DHT22;673;48.098;14.422;2024-01-06T14:49:39;3.30;99.90
1359;DHT22;673;48.098;14.422;2024-01-06T14:52:06;3.30;99.90
1359;DHT22;673;48.098;14.422;2024-01-06T14:54:36;3.20;99.90
1359;DHT22;673;48.098;14.422;2024-01-06T14:57:03;3.30;99.90
1359;DHT22;673;48.098;14.422;2024-01-06T14:59:30;3.20;99.90
1359;DHT22;673;48.098;14.422;2024-01-06T15:01:57;3.20;99.90
1359;DHT22;673;48.098;14.422;2024-01-06T15:04:24;3.20;99.90
1359;DHT22;673;48.098;14.422;2024-01-06T15:06:51;3.20;99.90
1359;DHT22;673;48.098;14.422;2024-01-06T15:09:18;3.20;99.90
1359;DHT22;673;48.098;14.422;2024-01-06T15:11:47;3.20;99.90
1359;DHT22;673;48.098;14.422;2024-01-06T15:14:14;3.20;99.90
1359;DHT22;673;48.098;14.422;2024-01-06T15:16:41;3.10;99.90
1359;DHT22;673;48.098;14.422;2024-01-06T15:19:08;3.10;99.90
1359;DHT22;673;48.098;14.422;2024-01-06T15:21:35;3.10;99.90
1359;DHT22;673;48.098;14.422;2024-01-06T15:24:02;3.10;99.90
1359;DHT22;673;48.098;14.422;2024-01-06T15:26:29;3.00;99.90
1359;DHT22;673;48.098;14.422;2024-01-06T15:28:58;3.00;99.90
1359;DHT22;673;48.098;14.422;2024-01-06T15:31:26;3.00;99.90
1359;DHT22;673;48.098;14.422;2024-01-06T15:33:54;3.10;99.90
1359;DHT22;673;48.098;14.422;2024-01-06T15:36:21;3.00;99.90
1359;DHT22;673;48.098;14.422;2024-01-06T15:38:49;3.00;99.90
1359;DHT22;673;48.098;14.422;2024-01-06T15:41:16;3.00;99.90
1359;DHT22;673;48.098;14.422;2024-01-06T15:43:43;3.00;99.90
1359;DHT22;673;48.098;14.422;2024-01-06T15:46:11;3.00;99.90
1359;DHT22;673;48.098;14.422;2024-01-06T15:48:41;2.90;99.90
1359;DHT22;673;48.098;14.422;2024-01-06T15:51:09;3.00;99.90
1359;DHT22;673;48.098;14.422;2024-01-06T15:53:37;3.00;99.90
1359;DHT22;673;48.098;14.422;2024-01-06T15:56:04;3.00;99.90
1359;DHT22;673;48.098;14.422;2024-01-06T15:58:31;2.90;99.90
1359;DHT22;673;48.098;14.422;2024-01-06T16:00:58;2.90;99.90
1359;DHT22;673;48.098;14.422;2024-01-06T16:03:26;2.90;99.90
1359;DHT22;673;48.098;14.422;2024-01-06T16:05:53;2.80;99.90
1359;DHT22;673;48.098;14.422;2024-01-06T16:08:21;2.80;99.90
1359;DHT22;673;48.098;14.422;2024-01-06T16:10:48;2.80;99.90
1359;DHT22;673;48.098;14.422;2024-01-06T16:13:15;2.80;99.90
1359;DHT22;673;48.098;14.422;2024-01-06T16:15:44;2.80;99.90
1359;DHT22;673;48.098;14.422;2024-01-06T16:18:11;2.80;99.90
1359;DHT22;673;48.098;14.422;2024-01-06T16:20:40;2.80;99.90
1359;DHT22;673;48.098;14.422;2024-01-06T16:23:07;2.80;99.90